KMGG

Details ICAO KMGG
Name Maple Lake Municipal
Region United States
Timezone America/Chicago (UTC-6.0)
Plans Departing 0
Arriving 0
Stats Elevation 1,028 ft / 313 m (AMSL)
Location 45.235995° -93.985594°
Runways 1
Magnetic Variation 0.775° E
Sunrise 2017-12-18 13:51:48 UTC / 2017-12-18 07:51:48 Local
Sunset 2017-12-18 22:36:15 UTC / 2017-12-18 16:36:15 Local
Advertisement - Login to hide

Runways

ID Width Length Bearing (true) Bearing (mag) Surface Threshold Offset Overrun Length
10 60 ft / 18 m 2,789 ft / 850 m 102.19° 101.42° Asphalt 0 ft / 0 m 0 ft / 0 m
28 60 ft / 18 m 2,789 ft / 850 m 282.20° 281.43° Asphalt 0 ft / 0 m 0 ft / 0 m

Map

Weather


0- 5 10 15 20 25 30 35+ Temperature / ° C

Clouds and Precipitation
Forecast for 2017-12-18 12:00 UTC. Updated 2 hours ago

Ground ~20,000 ft ~40,000 ft Winds

METAR

KMGG 181115Z AUTO 18005KT 5SM BR CLR M03/M04 A2980 RMK AO2 T10301036

TAF

Not found
Warning: Do not use this data for real-world aviation or navigation. No guarantee of current accuracy is given.